Santa Barbara Municipal Airport
KSBA : now visible

Airfield :











YOU CAN JOIN US ON...

 
LOGIN :

Register | Disclaimer

   EN    FR    IT 

 









Legend :    VFR   Marginal VFR   IFR   Intensive IFR   Very Intensive IFR
Visi :
Ceiling :
>= 8 km
>= 3000ft
5 to 8 km
1000 to 3000 ft
1500m to 5 km
500 to 1000 ft
800 to 1500m
200 to 500 ft
< 800m
< 200 ft
Symbols :   Thunderstorms  Fog  Heavy snow  Heavy precipitations  Wind > 20 kt






- Airport Elevation : 13 ft
- IATA code : SBA


KSBA - Santa Barbara Municipal

CURRENT METAR :
  • 172153Z 20005KT 10SM CLR 18/11 A2990 RMK AO2 SLP125 T01830106 $

EXPIRED METARs :
  • 172053Z VRB03KT 10SM CLR 19/09 A2992 RMK AO2 SLP131 T01890089 58020 $
  • 171953Z 17005KT 9SM CLR 17/12 A2995 RMK AO2 SLP142 T01670117 $

TAF KSBA
Valid from the 17 at 18:00 until the 18 at 18:00 UTC


171726Z 1718/1818 09004KT 3SM BR BKN003
FM171815 VRB03KT 6SM HZ SCT003
FM172100 23006KT P6SM SCT200
FM180200 VRB03KT P6SM SKC
FM181300 00000KT P6SM SKC



MET'MAP, your aeronautical weather chart ! - Copyright ORBIFLY December 2007 - Disclaimer

ORBIFLY MET'MAP TEAM :

Programming & Development : Alexandra Zaïnal
Concept & original design : Baudouin d'Aumeries
Assistance for programming : Marc-Olivier Méhu
Technical & hardware support : Manuel Goepfert

Contact : metmap@orbifly.com




SOURCES & CREDITS :

   NOAA       Earth
Advisory